Valley Center, California
Current Conditions -  °F | °C
As of 5:53 AM on Friday 19 Dec 2014 (Local Time) from KRNM Reporting Station
Haze Haze  
Wind Chill: 37°   Ceiling: Unl
Heat Index: 37°   Visibility: 6mi
Dew Point: 36°   Wind: 3mph
Humidity: 96%   Direction: 140°SE
Pressure: 30.21"   Gusts: NA
Location:  33.22°N, 117.04°W
Report Text: KRNM 191353Z AUTO 14003KT 6SM BR CLR 03/02 A3021 RMK AO2 SLP232 T00280022 $
Loading
Personal Weather Stations






























Interactive Weather Map New forecast layout! Learn more

10-Day Weather Forecast

Advertisements
Track Severe Weather on mobile